createdAt,value
2022-07-25T00:02:00.161Z,19.60
2022-07-25T00:04:27.521Z,19.50
2022-07-25T00:06:54.319Z,19.50
2022-07-25T00:09:23.330Z,19.50
2022-07-25T00:11:50.048Z,19.60
2022-07-25T00:14:16.822Z,19.50
2022-07-25T00:16:45.844Z,19.50
2022-07-25T00:19:15.035Z,19.50
2022-07-25T00:21:41.822Z,19.40
2022-07-25T00:24:09.432Z,19.40
2022-07-25T00:26:39.967Z,19.40
2022-07-25T00:29:07.142Z,19.40
2022-07-25T00:31:34.045Z,19.40
2022-07-25T00:34:00.830Z,19.40
2022-07-25T00:36:27.595Z,19.40
2022-07-25T00:38:54.344Z,19.40
2022-07-25T00:41:23.681Z,19.40
2022-07-25T00:43:52.878Z,19.30
2022-07-25T00:46:20.601Z,19.30
2022-07-25T00:48:48.418Z,19.20
2022-07-25T00:51:16.274Z,19.20
2022-07-25T00:53:43.611Z,19.10
2022-07-25T00:56:12.610Z,19.10
2022-07-25T00:58:39.342Z,19.00
2022-07-25T01:01:06.341Z,19.00
2022-07-25T01:03:38.131Z,18.90
2022-07-25T01:06:05.055Z,18.90
2022-07-25T01:08:32.625Z,18.90
2022-07-25T01:10:59.626Z,18.80
2022-07-25T01:13:26.355Z,18.80
2022-07-25T01:15:53.111Z,18.80
2022-07-25T01:18:22.574Z,18.80
2022-07-25T01:20:49.300Z,18.80
2022-07-25T01:23:18.283Z,18.90
2022-07-25T01:25:45.796Z,18.80
2022-07-25T01:28:12.814Z,18.80
2022-07-25T01:30:40.131Z,18.70
2022-07-25T01:33:09.139Z,18.70
2022-07-25T01:35:40.201Z,18.70
2022-07-25T01:38:10.103Z,18.70
2022-07-25T01:40:36.918Z,18.60
2022-07-25T01:43:06.593Z,18.60
2022-07-25T01:45:33.753Z,18.60
2022-07-25T01:48:00.593Z,18.60
2022-07-25T01:50:29.918Z,18.60
2022-07-25T01:52:56.856Z,18.50
2022-07-25T01:55:23.659Z,18.50
2022-07-25T01:57:54.493Z,18.40
2022-07-25T02:00:23.765Z,18.40
2022-07-25T02:03:10.484Z,18.40
2022-07-25T02:05:37.353Z,18.40
2022-07-25T02:08:04.468Z,18.30
2022-07-25T02:10:31.836Z,18.30
2022-07-25T02:13:01.619Z,18.30
2022-07-25T02:15:28.463Z,18.30
2022-07-25T02:17:55.331Z,18.30
2022-07-25T02:20:22.192Z,18.30
2022-07-25T02:22:48.989Z,18.20
2022-07-25T02:25:15.769Z,18.20
2022-07-25T02:27:42.589Z,18.10
2022-07-25T02:30:09.705Z,18.10
2022-07-25T02:32:36.462Z,18.00
2022-07-25T02:35:03.897Z,18.10
2022-07-25T02:37:39.856Z,18.30
2022-07-25T02:40:07.439Z,18.30
2022-07-25T02:42:36.458Z,18.20
2022-07-25T02:45:05.780Z,18.20
2022-07-25T02:47:32.498Z,18.20
2022-07-25T02:49:59.241Z,18.20
2022-07-25T02:52:26.049Z,18.20
2022-07-25T02:54:55.025Z,18.20
2022-07-25T02:57:23.942Z,18.10
2022-07-25T02:59:50.656Z,18.10
2022-07-25T03:02:19.922Z,18.10
2022-07-25T03:04:46.773Z,18.10
2022-07-25T03:07:13.492Z,18.10
2022-07-25T03:09:40.231Z,18.10
2022-07-25T03:12:07.099Z,18.00
2022-07-25T03:14:33.874Z,18.00
2022-07-25T03:17:02.960Z,17.90
2022-07-25T03:19:29.805Z,17.90
2022-07-25T03:21:56.537Z,17.80
2022-07-25T03:24:25.373Z,17.80
2022-07-25T03:26:52.085Z,17.80
2022-07-25T03:29:21.180Z,17.80
2022-07-25T03:31:47.962Z,17.80
2022-07-25T03:34:16.994Z,17.80
2022-07-25T03:36:43.723Z,17.80
2022-07-25T03:39:10.509Z,17.80
2022-07-25T03:41:37.276Z,17.80
2022-07-25T03:44:04.657Z,17.80
2022-07-25T03:46:31.738Z,17.80
2022-07-25T03:49:00.773Z,17.80
2022-07-25T03:51:27.538Z,17.80
2022-07-25T03:54:02.745Z,17.70
2022-07-25T03:56:29.649Z,17.80
2022-07-25T03:58:56.376Z,17.70
2022-07-25T04:01:26.605Z,17.70
2022-07-25T04:03:53.604Z,17.70
2022-07-25T04:06:20.413Z,17.70
2022-07-25T04:08:50.083Z,17.70
2022-07-25T04:11:16.836Z,17.70
2022-07-25T04:13:45.745Z,17.70
2022-07-25T04:16:14.839Z,17.80
2022-07-25T04:18:47.953Z,17.80
2022-07-25T04:21:18.273Z,17.90
2022-07-25T04:23:45.189Z,17.90
2022-07-25T04:26:11.930Z,17.90
2022-07-25T04:28:38.666Z,17.90
2022-07-25T04:31:05.666Z,18.00
2022-07-25T04:33:32.428Z,18.00
2022-07-25T04:36:03.751Z,18.00
2022-07-25T04:38:30.559Z,18.00
2022-07-25T04:40:57.288Z,18.10
2022-07-25T04:43:24.427Z,18.20
2022-07-25T04:45:51.258Z,18.20
2022-07-25T04:48:18.071Z,18.30
2022-07-25T04:50:49.702Z,18.40
2022-07-25T04:53:16.456Z,18.40
2022-07-25T04:55:45.671Z,18.50
2022-07-25T04:58:12.469Z,18.60
2022-07-25T05:00:39.444Z,18.90
2022-07-25T05:03:06.312Z,19.30
2022-07-25T05:05:35.552Z,19.40
2022-07-25T05:08:02.301Z,19.60
2022-07-25T05:10:29.929Z,19.50
2022-07-25T05:12:57.295Z,19.40
2022-07-25T05:15:26.583Z,19.50
2022-07-25T05:17:53.398Z,19.60
2022-07-25T05:20:20.206Z,19.60
2022-07-25T05:22:47.228Z,19.60
2022-07-25T05:25:16.268Z,19.60
2022-07-25T05:27:45.515Z,19.60
2022-07-25T05:30:13.593Z,19.70
2022-07-25T05:32:41.585Z,19.80
2022-07-25T05:35:09.285Z,19.80
2022-07-25T05:37:39.393Z,19.90
2022-07-25T05:40:09.800Z,20.00
2022-07-25T05:42:38.743Z,20.10
2022-07-25T05:45:06.159Z,20.20
2022-07-25T05:47:32.904Z,20.30
2022-07-25T05:49:59.962Z,20.40
2022-07-25T05:52:31.415Z,20.50
2022-07-25T05:54:58.166Z,20.60
2022-07-25T05:57:24.992Z,20.60
2022-07-25T05:59:51.770Z,20.70
2022-07-25T06:02:18.692Z,20.80
2022-07-25T06:04:45.594Z,20.90
2022-07-25T06:07:16.921Z,20.90
2022-07-25T06:09:48.599Z,21.10
2022-07-25T06:12:15.442Z,21.20
2022-07-25T06:14:42.423Z,21.30
2022-07-25T06:17:09.721Z,21.50
2022-07-25T06:19:36.562Z,21.60
2022-07-25T06:22:03.293Z,21.80
2022-07-25T06:24:30.064Z,21.90
2022-07-25T06:26:59.263Z,22.10
2022-07-25T06:29:28.465Z,22.20
2022-07-25T06:31:57.757Z,22.30
2022-07-25T06:34:28.551Z,22.50
2022-07-25T06:36:58.494Z,22.60
2022-07-25T06:39:26.252Z,22.70
2022-07-25T06:41:52.977Z,22.80
2022-07-25T06:44:22.202Z,23.00
2022-07-25T06:46:49.036Z,23.10
2022-07-25T06:49:19.353Z,23.10
2022-07-25T06:51:46.083Z,23.20
2022-07-25T06:54:15.745Z,23.30
2022-07-25T06:56:42.567Z,23.40
2022-07-25T06:59:11.537Z,23.50
2022-07-25T07:01:40.798Z,23.60
2022-07-25T07:04:10.381Z,23.70
2022-07-25T07:06:38.654Z,23.80
2022-07-25T07:09:05.638Z,23.90
2022-07-25T07:11:34.265Z,24.00
2022-07-25T07:14:05.154Z,24.10
2022-07-25T07:16:32.246Z,24.20
2022-07-25T07:19:04.273Z,24.30
2022-07-25T07:21:31.255Z,24.40
2022-07-25T07:24:00.491Z,24.50
2022-07-25T07:26:32.198Z,24.60
2022-07-25T07:28:58.984Z,24.80
2022-07-25T07:31:25.967Z,24.90
2022-07-25T07:33:52.735Z,25.00
2022-07-25T07:36:22.227Z,25.10
2022-07-25T07:38:49.117Z,25.20
2022-07-25T07:41:15.936Z,25.30
2022-07-25T07:43:45.118Z,25.40
2022-07-25T07:46:14.260Z,25.40
2022-07-25T07:48:41.087Z,25.50
2022-07-25T07:51:07.924Z,25.70
2022-07-25T07:53:55.885Z,25.90
2022-07-25T07:56:25.102Z,26.00
2022-07-25T07:58:51.903Z,26.20
2022-07-25T08:01:20.978Z,26.20
2022-07-25T08:03:50.134Z,26.30
2022-07-25T08:06:19.460Z,26.40
2022-07-25T08:08:50.963Z,26.50
2022-07-25T08:11:17.728Z,26.50
2022-07-25T08:13:48.867Z,26.60
2022-07-25T08:16:18.026Z,26.70
2022-07-25T08:18:47.368Z,26.80
2022-07-25T08:21:14.217Z,26.80
2022-07-25T08:23:41.114Z,26.90
2022-07-25T08:26:08.302Z,27.00
2022-07-25T08:28:35.168Z,27.00
2022-07-25T08:31:01.994Z,27.20
2022-07-25T08:33:28.902Z,27.30
2022-07-25T08:35:56.341Z,27.40
2022-07-25T08:38:25.124Z,27.50
2022-07-25T08:40:53.260Z,27.50
2022-07-25T08:43:20.753Z,27.70
2022-07-25T08:45:49.868Z,27.80
2022-07-25T08:48:24.126Z,27.80
2022-07-25T08:50:52.007Z,27.80
2022-07-25T08:53:37.661Z,28.00
2022-07-25T08:56:11.515Z,28.10
2022-07-25T08:58:41.368Z,28.20
2022-07-25T09:01:08.592Z,28.30
2022-07-25T09:03:36.323Z,28.40
2022-07-25T09:06:17.865Z,28.40
2022-07-25T09:08:55.974Z,28.50
2022-07-25T09:11:32.376Z,28.50
2022-07-25T09:14:15.607Z,28.50
2022-07-25T09:16:44.822Z,28.60
2022-07-25T09:19:20.308Z,28.70
2022-07-25T09:22:02.420Z,28.80
2022-07-25T09:24:32.954Z,28.90
2022-07-25T09:27:09.566Z,29.10
2022-07-25T09:29:38.778Z,29.20
2022-07-25T09:32:17.583Z,29.10
2022-07-25T09:34:46.925Z,29.10
2022-07-25T09:37:19.470Z,29.10
2022-07-25T09:39:49.344Z,29.10
2022-07-25T09:42:29.032Z,29.10
2022-07-25T09:45:12.865Z,29.20
2022-07-25T09:47:53.582Z,29.30
2022-07-25T09:50:21.762Z,29.50
2022-07-25T09:52:50.811Z,29.40
2022-07-25T09:55:22.965Z,29.50
2022-07-25T09:57:52.582Z,29.60
2022-07-25T10:00:26.212Z,29.70
2022-07-25T10:03:02.349Z,29.70
2022-07-25T10:05:40.403Z,29.70
2022-07-25T10:08:08.728Z,29.70
2022-07-25T10:10:41.200Z,29.70
2022-07-25T10:13:11.143Z,29.70
2022-07-25T10:15:51.097Z,29.90
2022-07-25T10:18:30.035Z,29.90
2022-07-25T10:21:26.147Z,30.00
2022-07-25T10:24:07.878Z,30.00
2022-07-25T10:26:40.020Z,30.10
2022-07-25T10:29:11.386Z,30.20
2022-07-25T10:31:50.350Z,30.40
2022-07-25T10:34:30.712Z,30.50
2022-07-25T10:37:12.481Z,30.60
2022-07-25T10:39:42.091Z,30.50
2022-07-25T10:42:13.653Z,30.50
2022-07-25T10:45:01.984Z,30.50
2022-07-25T10:47:38.417Z,30.50
2022-07-25T10:50:29.557Z,30.40
2022-07-25T10:53:03.185Z,30.50
2022-07-25T10:55:30.146Z,30.60
2022-07-25T10:58:17.189Z,30.60
2022-07-25T11:00:46.957Z,30.80
2022-07-25T11:03:18.102Z,30.90
2022-07-25T11:05:48.443Z,30.90
2022-07-25T11:08:22.186Z,30.80
2022-07-25T11:10:57.075Z,30.80
2022-07-25T11:13:23.986Z,30.80
2022-07-25T11:15:51.208Z,30.90
2022-07-25T11:18:31.479Z,30.90
2022-07-25T11:21:04.314Z,31.00
2022-07-25T11:23:37.056Z,31.00
2022-07-25T11:26:12.445Z,30.90
2022-07-25T11:28:47.497Z,30.90
2022-07-25T11:31:16.031Z,30.90
2022-07-25T11:33:46.186Z,30.90
2022-07-25T11:36:15.726Z,31.00
2022-07-25T11:38:47.004Z,31.00
2022-07-25T11:41:15.969Z,31.20
2022-07-25T11:43:51.613Z,31.30
2022-07-25T11:46:18.612Z,31.30
2022-07-25T11:48:45.601Z,31.30
2022-07-25T11:51:18.931Z,31.50
2022-07-25T11:53:49.713Z,31.60
2022-07-25T11:56:42.016Z,31.60
2022-07-25T11:59:10.223Z,31.50
2022-07-25T12:01:39.968Z,31.50
2022-07-25T12:04:20.215Z,31.50
2022-07-25T12:06:51.801Z,31.70
2022-07-25T12:09:20.402Z,31.70
2022-07-25T12:11:48.731Z,31.90
2022-07-25T12:14:15.721Z,32.10
2022-07-25T12:16:42.766Z,32.10
2022-07-25T12:19:18.503Z,32.30
2022-07-25T12:21:48.046Z,32.30
2022-07-25T12:24:17.001Z,32.40
2022-07-25T12:26:43.799Z,32.50
2022-07-25T12:29:10.887Z,32.70
2022-07-25T12:31:37.834Z,32.70
2022-07-25T12:34:04.607Z,32.90
2022-07-25T12:36:31.436Z,33.00
2022-07-25T12:38:58.194Z,33.10
2022-07-25T12:41:25.376Z,33.30
2022-07-25T12:43:52.486Z,33.60
2022-07-25T12:46:19.470Z,33.70
2022-07-25T12:48:46.374Z,33.80
2022-07-25T12:51:13.364Z,34.00
2022-07-25T12:53:42.503Z,34.30
2022-07-25T12:56:12.174Z,34.20
2022-07-25T12:58:41.630Z,34.10
2022-07-25T13:01:13.593Z,34.20
2022-07-25T13:03:42.550Z,34.40
2022-07-25T13:06:09.342Z,34.60
2022-07-25T13:08:38.519Z,34.80
2022-07-25T13:11:05.335Z,34.80
2022-07-25T13:13:32.141Z,34.70
2022-07-25T13:15:59.164Z,34.70
2022-07-25T13:18:25.941Z,34.70
2022-07-25T13:20:55.097Z,34.90
2022-07-25T13:23:21.948Z,35.00
2022-07-25T13:25:48.746Z,35.00
2022-07-25T13:28:20.099Z,35.10
2022-07-25T13:30:47.837Z,35.00
2022-07-25T13:33:14.597Z,35.00
2022-07-25T13:35:41.373Z,35.00
2022-07-25T13:38:12.653Z,35.20
2022-07-25T13:40:42.733Z,35.40
2022-07-25T13:43:10.185Z,35.50
2022-07-25T13:45:37.407Z,35.20
2022-07-25T13:48:28.546Z,35.10
2022-07-25T13:50:52.112Z,35.20
2022-07-25T13:53:19.339Z,35.40
2022-07-25T13:55:46.409Z,35.40
2022-07-25T13:58:13.250Z,35.20
2022-07-25T14:00:40.565Z,35.20
2022-07-25T14:03:07.335Z,35.20
2022-07-25T14:05:39.195Z,35.10
2022-07-25T14:08:07.528Z,34.80
2022-07-25T14:10:35.136Z,34.70
2022-07-25T14:13:04.691Z,34.70
2022-07-25T14:15:31.554Z,34.60
2022-07-25T14:17:58.364Z,34.60
2022-07-25T14:20:25.437Z,34.60
2022-07-25T14:22:55.228Z,34.50
2022-07-25T14:25:22.723Z,34.60
2022-07-25T14:27:49.772Z,34.40
2022-07-25T14:30:16.638Z,34.40
2022-07-25T14:32:43.539Z,34.60
2022-07-25T14:35:13.187Z,34.70
2022-07-25T14:37:40.104Z,34.70
2022-07-25T14:40:07.740Z,35.00
2022-07-25T14:42:34.520Z,35.00
2022-07-25T14:45:01.264Z,34.70
2022-07-25T14:47:28.170Z,34.60
2022-07-25T14:49:54.923Z,34.40
2022-07-25T14:52:22.634Z,34.20
2022-07-25T14:54:49.845Z,33.80
2022-07-25T14:57:16.628Z,33.50
2022-07-25T14:59:45.516Z,33.30
2022-07-25T15:02:12.501Z,33.10
2022-07-25T15:04:39.335Z,30.00
2022-07-25T15:07:10.965Z,26.20
2022-07-25T15:09:37.946Z,24.60
2022-07-25T15:12:05.052Z,23.70
2022-07-25T15:14:36.734Z,23.30
2022-07-25T15:17:05.954Z,23.90
2022-07-25T15:19:32.902Z,24.70
2022-07-25T15:21:59.792Z,24.90
2022-07-25T15:24:29.275Z,25.40
2022-07-25T15:26:56.756Z,25.70
2022-07-25T15:29:23.549Z,25.70
2022-07-25T15:31:51.209Z,25.50
2022-07-25T15:34:22.649Z,25.50
2022-07-25T15:36:49.433Z,25.30
2022-07-25T15:39:16.553Z,25.20
2022-07-25T15:41:43.331Z,25.10
2022-07-25T15:44:10.107Z,25.30
2022-07-25T15:46:39.427Z,25.30
2022-07-25T15:49:06.503Z,25.10
2022-07-25T15:51:35.622Z,25.00
2022-07-25T15:54:04.764Z,24.90
2022-07-25T15:56:31.659Z,25.10
2022-07-25T15:58:58.457Z,25.00
2022-07-25T16:01:25.365Z,24.80
2022-07-25T16:03:52.188Z,25.30
2022-07-25T16:06:20.730Z,26.10
2022-07-25T16:08:48.752Z,27.50
2022-07-25T16:11:18.051Z,27.80
2022-07-25T16:13:44.981Z,28.20
2022-07-25T16:16:11.863Z,28.70
2022-07-25T16:18:38.647Z,28.70
2022-07-25T16:21:07.923Z,28.70
2022-07-25T16:23:39.015Z,28.80
2022-07-25T16:26:11.206Z,29.60
2022-07-25T16:28:39.254Z,31.50
2022-07-25T16:31:06.864Z,31.50
2022-07-25T16:33:33.732Z,32.10
2022-07-25T16:36:00.551Z,33.00
2022-07-25T16:38:28.854Z,33.10
2022-07-25T16:40:55.736Z,33.00
2022-07-25T16:43:24.785Z,32.90
2022-07-25T16:45:51.600Z,33.10
2022-07-25T16:48:18.402Z,31.90
2022-07-25T16:50:45.356Z,31.40
2022-07-25T16:53:12.218Z,31.00
2022-07-25T16:55:41.184Z,31.10
2022-07-25T16:58:07.986Z,32.10
2022-07-25T17:00:39.173Z,32.20
2022-07-25T17:03:08.141Z,31.40
2022-07-25T17:05:37.810Z,31.60
2022-07-25T17:08:04.895Z,31.20
2022-07-25T17:10:31.651Z,30.60
2022-07-25T17:12:58.541Z,30.30
2022-07-25T17:15:30.231Z,29.60
2022-07-25T17:18:00.071Z,29.00
2022-07-25T17:20:29.125Z,28.40
2022-07-25T17:22:55.978Z,28.00
2022-07-25T17:25:22.763Z,27.70
2022-07-25T17:27:49.529Z,27.50
2022-07-25T17:30:16.374Z,28.00
2022-07-25T17:32:43.687Z,28.40
2022-07-25T17:35:10.508Z,28.20
2022-07-25T17:37:37.359Z,27.90
2022-07-25T17:40:04.910Z,27.90
2022-07-25T17:42:34.018Z,27.80
2022-07-25T17:45:00.829Z,27.70
2022-07-25T17:47:29.698Z,28.10
2022-07-25T17:50:06.841Z,28.90
2022-07-25T17:52:36.430Z,29.30
2022-07-25T17:55:03.567Z,29.70
2022-07-25T17:57:35.732Z,30.50
2022-07-25T18:00:05.045Z,30.70
2022-07-25T18:02:31.850Z,30.40
2022-07-25T18:05:00.775Z,30.20
2022-07-25T18:07:29.766Z,30.30
2022-07-25T18:09:56.686Z,30.70
2022-07-25T18:12:29.609Z,30.60
2022-07-25T18:14:58.819Z,30.20
2022-07-25T18:17:25.814Z,30.20
2022-07-25T18:19:52.607Z,30.20
2022-07-25T18:22:19.462Z,30.40
2022-07-25T18:24:48.499Z,30.20
2022-07-25T18:27:17.410Z,29.70
2022-07-25T18:29:44.167Z,29.10
2022-07-25T18:32:10.979Z,28.50
2022-07-25T18:34:37.888Z,28.00
2022-07-25T18:37:05.800Z,27.60
2022-07-25T18:39:32.564Z,27.30
2022-07-25T18:42:01.896Z,27.00
2022-07-25T18:44:32.364Z,26.80
2022-07-25T18:47:02.074Z,26.70
2022-07-25T18:49:28.844Z,26.40
2022-07-25T18:52:00.515Z,26.10
2022-07-25T18:54:29.982Z,25.90
2022-07-25T18:56:56.800Z,25.80
2022-07-25T18:59:26.264Z,25.70
2022-07-25T19:01:53.292Z,25.60
2022-07-25T19:04:20.146Z,25.50
2022-07-25T19:06:46.964Z,25.40
2022-07-25T19:09:13.742Z,25.30
2022-07-25T19:11:42.952Z,25.20
2022-07-25T19:14:12.186Z,25.20
2022-07-25T19:16:39.033Z,25.40
2022-07-25T19:19:10.394Z,25.80
2022-07-25T19:21:38.195Z,26.10
2022-07-25T19:24:05.760Z,26.20
2022-07-25T19:26:34.597Z,26.30
2022-07-25T19:29:01.594Z,26.40
2022-07-25T19:31:31.272Z,26.40
2022-07-25T19:34:01.479Z,26.50
2022-07-25T19:36:30.311Z,26.50
2022-07-25T19:38:57.182Z,26.40
2022-07-25T19:41:26.221Z,26.40
2022-07-25T19:43:53.545Z,26.30
2022-07-25T19:46:20.876Z,26.30
2022-07-25T19:48:47.839Z,26.30
2022-07-25T19:51:17.107Z,26.30
2022-07-25T19:53:43.881Z,26.30
2022-07-25T19:56:12.744Z,26.20
2022-07-25T19:58:40.548Z,26.10
2022-07-25T20:01:12.566Z,26.00
2022-07-25T20:03:43.851Z,25.90
2022-07-25T20:06:10.829Z,25.80
2022-07-25T20:08:39.462Z,25.80
2022-07-25T20:11:11.406Z,25.80
2022-07-25T20:13:45.736Z,25.80
2022-07-25T20:16:12.597Z,25.80
2022-07-25T20:18:39.383Z,25.70
2022-07-25T20:21:06.622Z,25.60
2022-07-25T20:23:35.827Z,25.60
2022-07-25T20:26:09.168Z,25.60
2022-07-25T20:28:36.342Z,25.50
2022-07-25T20:31:03.445Z,25.40
2022-07-25T20:33:31.018Z,25.30
2022-07-25T20:35:58.967Z,25.30
2022-07-25T20:38:28.363Z,25.20
2022-07-25T20:40:58.219Z,25.10
2022-07-25T20:43:28.618Z,25.00
2022-07-25T20:45:55.526Z,24.90
2022-07-25T20:48:24.828Z,24.80
2022-07-25T20:50:51.782Z,24.80
2022-07-25T20:53:19.626Z,24.80
2022-07-25T20:55:48.646Z,24.60
2022-07-25T20:58:17.849Z,24.50
2022-07-25T21:00:44.869Z,24.50
2022-07-25T21:03:16.384Z,24.40
2022-07-25T21:05:43.799Z,24.40
2022-07-25T21:08:12.739Z,24.30
2022-07-25T21:10:39.562Z,24.10
2022-07-25T21:13:08.536Z,24.20
2022-07-25T21:15:37.566Z,24.10
2022-07-25T21:18:07.538Z,24.00
2022-07-25T21:20:35.996Z,24.00
2022-07-25T21:23:02.848Z,23.90
2022-07-25T21:25:31.958Z,23.90
2022-07-25T21:27:58.811Z,23.80
2022-07-25T21:30:25.641Z,23.80
2022-07-25T21:32:52.501Z,23.80
2022-07-25T21:35:21.734Z,23.60
2022-07-25T21:37:51.379Z,23.60
2022-07-25T21:40:18.137Z,23.50
2022-07-25T21:42:47.166Z,23.40
2022-07-25T21:45:16.188Z,23.20
2022-07-25T21:47:43.007Z,23.00
2022-07-25T21:50:28.653Z,22.90
2022-07-25T21:52:55.800Z,22.80
2022-07-25T21:55:22.757Z,22.70
2022-07-25T21:57:51.409Z,22.50
2022-07-25T22:00:19.029Z,22.50
2022-07-25T22:02:46.703Z,22.40
2022-07-25T22:05:14.755Z,22.40
2022-07-25T22:07:42.150Z,22.30
2022-07-25T22:10:15.454Z,22.20
2022-07-25T22:12:45.176Z,22.10
2022-07-25T22:15:13.030Z,22.00
2022-07-25T22:17:49.187Z,22.00
2022-07-25T22:20:18.917Z,21.90
2022-07-25T22:22:49.008Z,21.70
2022-07-25T22:25:18.281Z,21.60
2022-07-25T22:27:45.179Z,21.50
2022-07-25T22:30:19.257Z,21.40
2022-07-25T22:32:49.861Z,21.50
2022-07-25T22:35:17.463Z,21.50
2022-07-25T22:37:45.396Z,21.40
2022-07-25T22:40:13.019Z,21.30
2022-07-25T22:42:42.406Z,21.30
2022-07-25T22:45:09.775Z,21.20
2022-07-25T22:47:36.638Z,21.10
2022-07-25T22:50:07.023Z,21.20
2022-07-25T22:52:35.020Z,21.10
2022-07-25T22:55:04.177Z,21.10
2022-07-25T22:57:37.124Z,21.00
2022-07-25T23:00:08.168Z,21.00
2022-07-25T23:02:37.148Z,20.90
2022-07-25T23:05:07.125Z,20.90
2022-07-25T23:07:34.084Z,21.00
2022-07-25T23:10:01.383Z,20.90
2022-07-25T23:12:30.681Z,20.90
2022-07-25T23:14:59.924Z,21.00
2022-07-25T23:17:26.707Z,21.10
2022-07-25T23:19:57.733Z,21.10
2022-07-25T23:22:28.340Z,21.10
2022-07-25T23:24:56.295Z,21.10
2022-07-25T23:27:23.337Z,21.00
2022-07-25T23:29:50.145Z,21.00
2022-07-25T23:32:16.975Z,20.90
2022-07-25T23:34:43.837Z,21.00
2022-07-25T23:37:12.922Z,20.90
2022-07-25T23:39:41.936Z,20.90
2022-07-25T23:42:10.888Z,20.80
2022-07-25T23:44:38.240Z,20.90
2022-07-25T23:47:05.510Z,20.80
2022-07-25T23:49:37.094Z,20.80
2022-07-25T23:52:06.369Z,20.80
2022-07-25T23:54:34.963Z,20.80
2022-07-25T23:57:02.923Z,20.80
2022-07-25T23:59:29.677Z,20.80
